createdAt,value
2023-06-09T00:00:50.441Z,21.30
2023-06-09T00:03:17.533Z,21.30
2023-06-09T00:05:44.375Z,21.30
2023-06-09T00:08:12.375Z,21.30
2023-06-09T00:10:39.064Z,21.30
2023-06-09T00:13:07.125Z,21.30
2023-06-09T00:15:33.873Z,21.30
2023-06-09T00:18:03.099Z,21.20
2023-06-09T00:20:33.901Z,21.20
2023-06-09T00:23:01.081Z,21.20
2023-06-09T00:25:27.773Z,21.20
2023-06-09T00:27:54.429Z,21.20
2023-06-09T00:30:34.107Z,21.10
2023-06-09T00:33:06.699Z,21.00
2023-06-09T00:35:33.703Z,20.90
2023-06-09T00:38:00.426Z,20.90
2023-06-09T00:40:27.310Z,20.90
2023-06-09T00:42:54.060Z,20.80
2023-06-09T00:45:20.735Z,20.80
2023-06-09T00:47:48.757Z,20.70
2023-06-09T00:50:17.465Z,20.70
2023-06-09T00:52:45.636Z,20.70
2023-06-09T00:55:13.819Z,20.70
2023-06-09T00:57:43.506Z,20.70
2023-06-09T01:00:13.960Z,20.60
2023-06-09T01:02:41.111Z,20.60
2023-06-09T01:05:09.324Z,20.60
2023-06-09T01:07:46.766Z,20.50
2023-06-09T01:10:19.303Z,20.50
2023-06-09T01:12:54.141Z,20.40
2023-06-09T01:15:24.418Z,20.30
2023-06-09T01:17:55.851Z,20.40
2023-06-09T01:20:28.531Z,20.30
2023-06-09T01:23:05.477Z,20.30
2023-06-09T01:25:36.646Z,20.30
2023-06-09T01:28:06.077Z,20.30
2023-06-09T01:30:37.098Z,20.30
2023-06-09T01:33:07.042Z,20.30
2023-06-09T01:35:33.960Z,20.20
2023-06-09T01:38:01.025Z,20.20
2023-06-09T01:40:28.000Z,20.10
2023-06-09T01:42:58.572Z,20.00
2023-06-09T01:45:25.596Z,20.00
2023-06-09T01:47:52.364Z,19.90
2023-06-09T01:50:26.931Z,19.90
2023-06-09T01:52:58.058Z,19.80
2023-06-09T01:55:30.937Z,19.80
2023-06-09T01:58:04.033Z,19.70
2023-06-09T02:00:31.403Z,19.70
2023-06-09T02:03:00.909Z,19.70
2023-06-09T02:05:29.263Z,19.70
2023-06-09T02:07:57.205Z,19.60
2023-06-09T02:10:24.075Z,19.50
2023-06-09T02:12:50.726Z,19.50
2023-06-09T02:15:19.480Z,19.50
2023-06-09T02:17:46.338Z,19.50
2023-06-09T02:20:14.082Z,19.50
2023-06-09T02:22:40.886Z,19.40
2023-06-09T02:25:09.551Z,19.40
2023-06-09T02:27:36.332Z,19.30
2023-06-09T02:30:03.490Z,19.20
2023-06-09T02:32:30.814Z,19.20
2023-06-09T02:34:57.614Z,19.20
2023-06-09T02:37:24.305Z,19.20
2023-06-09T02:39:51.146Z,19.20
2023-06-09T02:42:17.778Z,19.20
2023-06-09T02:44:48.955Z,19.20
2023-06-09T02:47:15.914Z,19.20
2023-06-09T02:49:43.186Z,19.20
2023-06-09T02:52:10.264Z,19.10
2023-06-09T02:54:37.004Z,19.00
2023-06-09T02:57:04.651Z,19.00
2023-06-09T02:59:31.506Z,19.00
2023-06-09T03:01:58.144Z,19.00
2023-06-09T03:04:24.779Z,19.00
2023-06-09T03:06:53.983Z,19.00
2023-06-09T03:09:20.675Z,18.90
2023-06-09T03:11:47.355Z,19.00
2023-06-09T03:14:14.289Z,19.00
2023-06-09T03:16:40.966Z,18.90
2023-06-09T03:19:08.397Z,19.00
2023-06-09T03:21:37.291Z,18.90
2023-06-09T03:24:06.620Z,18.90
2023-06-09T03:26:33.258Z,18.90
2023-06-09T03:28:59.963Z,18.90
2023-06-09T03:31:26.746Z,19.10
2023-06-09T03:33:53.444Z,18.90
2023-06-09T03:36:21.858Z,18.90
2023-06-09T03:38:48.468Z,18.90
2023-06-09T03:41:18.683Z,18.90
2023-06-09T03:43:45.395Z,18.90
2023-06-09T03:46:12.143Z,18.90
2023-06-09T03:48:39.949Z,18.90
2023-06-09T03:51:06.572Z,18.90
2023-06-09T03:53:33.234Z,18.90
2023-06-09T03:55:59.850Z,18.90
2023-06-09T03:58:27.174Z,18.90
2023-06-09T04:00:54.116Z,18.90
2023-06-09T04:03:21.390Z,19.00
2023-06-09T04:05:48.384Z,18.90
2023-06-09T04:08:15.273Z,18.90
2023-06-09T04:10:42.484Z,18.90
2023-06-09T04:13:09.892Z,18.90
2023-06-09T04:15:37.152Z,18.90
2023-06-09T04:18:04.962Z,19.00
2023-06-09T04:20:35.100Z,19.10
2023-06-09T04:23:02.824Z,19.10
2023-06-09T04:25:30.305Z,19.20
2023-06-09T04:27:57.402Z,19.20
2023-06-09T04:30:26.174Z,19.20
2023-06-09T04:32:54.056Z,19.30
2023-06-09T04:35:21.312Z,19.40
2023-06-09T04:37:49.477Z,19.50
2023-06-09T04:40:22.234Z,19.60
2023-06-09T04:42:51.832Z,19.70
2023-06-09T04:45:19.610Z,19.70
2023-06-09T04:47:49.239Z,19.80
2023-06-09T04:50:16.718Z,19.90
2023-06-09T04:52:44.437Z,20.00
2023-06-09T04:55:12.876Z,19.90
2023-06-09T04:57:39.533Z,19.90
2023-06-09T05:00:08.301Z,19.90
2023-06-09T05:02:35.177Z,19.80
2023-06-09T05:05:01.943Z,19.90
2023-06-09T05:07:29.313Z,19.80
2023-06-09T05:09:55.929Z,19.80
2023-06-09T05:12:22.533Z,19.80
2023-06-09T05:14:49.177Z,19.90
2023-06-09T05:17:16.312Z,20.10
2023-06-09T05:19:44.996Z,20.10
2023-06-09T05:22:13.148Z,20.10
2023-06-09T05:24:40.491Z,20.20
2023-06-09T05:27:08.157Z,20.30
2023-06-09T05:29:35.333Z,20.50
2023-06-09T05:32:02.057Z,20.70
2023-06-09T05:34:32.705Z,20.90
2023-06-09T05:36:59.598Z,21.20
2023-06-09T05:39:26.596Z,21.40
2023-06-09T05:41:54.065Z,21.40
2023-06-09T05:44:20.701Z,21.60
2023-06-09T05:46:47.375Z,21.70
2023-06-09T05:49:14.068Z,21.60
2023-06-09T05:51:40.744Z,21.40
2023-06-09T05:54:07.436Z,21.30
2023-06-09T05:56:34.183Z,21.20
2023-06-09T05:59:03.188Z,21.10
2023-06-09T06:01:30.559Z,21.10
2023-06-09T06:03:57.699Z,21.30
2023-06-09T06:06:24.436Z,21.50
2023-06-09T06:08:51.069Z,21.80
2023-06-09T06:11:17.842Z,22.10
2023-06-09T06:13:44.441Z,22.30
2023-06-09T06:16:11.987Z,22.50
2023-06-09T06:18:38.670Z,22.70
2023-06-09T06:21:05.846Z,22.90
2023-06-09T06:23:33.397Z,23.00
2023-06-09T06:26:00.744Z,23.10
2023-06-09T06:28:28.614Z,23.20
2023-06-09T06:30:55.281Z,23.40
2023-06-09T06:33:24.032Z,23.30
2023-06-09T06:35:50.930Z,23.40
2023-06-09T06:38:17.541Z,23.50
2023-06-09T06:40:48.639Z,23.60
2023-06-09T06:43:15.720Z,23.60
2023-06-09T06:45:44.213Z,23.70
2023-06-09T06:48:12.032Z,23.80
2023-06-09T06:50:42.474Z,24.00
2023-06-09T06:53:09.912Z,23.90
2023-06-09T06:55:38.798Z,23.90
2023-06-09T06:58:06.666Z,23.70
2023-06-09T07:00:36.011Z,23.50
2023-06-09T07:03:03.510Z,23.20
2023-06-09T07:05:31.500Z,23.30
2023-06-09T07:07:59.665Z,23.30
2023-06-09T07:10:28.491Z,23.50
2023-06-09T07:13:01.126Z,23.90
2023-06-09T07:15:28.660Z,24.10
2023-06-09T07:17:56.738Z,24.10
2023-06-09T07:20:24.710Z,24.30
2023-06-09T07:22:52.812Z,24.40
2023-06-09T07:25:21.159Z,24.70
2023-06-09T07:27:51.695Z,25.00
2023-06-09T07:30:22.248Z,25.10
2023-06-09T07:32:50.715Z,25.00
2023-06-09T07:35:20.427Z,24.70
2023-06-09T07:37:50.043Z,24.80
2023-06-09T07:40:20.877Z,24.80
2023-06-09T07:42:51.032Z,24.80
2023-06-09T07:45:19.333Z,25.30
2023-06-09T07:47:47.702Z,25.60
2023-06-09T07:50:16.070Z,25.80
2023-06-09T07:52:43.251Z,26.10
2023-06-09T07:55:14.930Z,26.20
2023-06-09T07:57:43.999Z,26.50
2023-06-09T08:00:14.361Z,26.60
2023-06-09T08:02:43.853Z,26.50
2023-06-09T08:05:14.886Z,26.60
2023-06-09T08:07:42.585Z,26.60
2023-06-09T08:10:11.043Z,26.60
2023-06-09T08:12:38.414Z,26.50
2023-06-09T08:15:06.925Z,26.20
2023-06-09T08:17:36.566Z,26.00
2023-06-09T08:20:06.935Z,25.80
2023-06-09T08:22:34.685Z,25.50
2023-06-09T08:25:02.161Z,25.10
2023-06-09T08:27:29.250Z,25.00
2023-06-09T08:29:57.454Z,25.00
2023-06-09T08:32:24.879Z,25.20
2023-06-09T08:34:54.136Z,25.40
2023-06-09T08:37:21.917Z,25.60
2023-06-09T08:39:49.775Z,25.90
2023-06-09T08:42:21.866Z,26.00
2023-06-09T08:44:51.689Z,26.50
2023-06-09T08:47:21.489Z,26.70
2023-06-09T08:49:52.901Z,26.90
2023-06-09T08:52:21.551Z,26.70
2023-06-09T08:54:49.072Z,26.20
2023-06-09T08:57:16.435Z,25.90
2023-06-09T08:59:45.310Z,25.70
2023-06-09T09:02:12.614Z,25.70
2023-06-09T09:04:39.351Z,25.80
2023-06-09T09:07:06.402Z,25.90
2023-06-09T09:09:33.913Z,25.90
2023-06-09T09:12:02.574Z,25.90
2023-06-09T09:14:29.433Z,26.20
2023-06-09T09:16:56.107Z,26.40
2023-06-09T09:19:27.112Z,26.50
2023-06-09T09:21:54.810Z,26.60
2023-06-09T09:24:21.557Z,26.60
2023-06-09T09:26:48.933Z,26.80
2023-06-09T09:29:16.159Z,27.10
2023-06-09T09:31:43.234Z,27.20
2023-06-09T09:34:13.505Z,27.30
2023-06-09T09:36:43.478Z,27.30
2023-06-09T09:39:10.186Z,27.40
2023-06-09T09:41:36.922Z,27.60
2023-06-09T09:44:04.784Z,27.50
2023-06-09T09:46:37.273Z,27.60
2023-06-09T09:49:05.817Z,27.50
2023-06-09T09:51:34.613Z,27.40
2023-06-09T09:54:01.411Z,27.30
2023-06-09T09:56:29.194Z,27.20
2023-06-09T09:58:56.313Z,27.30
2023-06-09T10:01:24.973Z,27.60
2023-06-09T10:03:54.737Z,27.20
2023-06-09T10:06:27.754Z,27.10
2023-06-09T10:08:55.707Z,27.00
2023-06-09T10:11:22.881Z,27.00
2023-06-09T10:13:49.933Z,27.20
2023-06-09T10:16:17.378Z,27.30
2023-06-09T10:18:44.968Z,27.60
2023-06-09T10:21:11.809Z,27.80
2023-06-09T10:23:40.170Z,27.60
2023-06-09T10:26:08.739Z,27.80
2023-06-09T10:28:35.358Z,28.00
2023-06-09T10:31:03.267Z,28.00
2023-06-09T10:33:33.760Z,28.10
2023-06-09T10:36:05.686Z,27.80
2023-06-09T10:38:40.943Z,27.50
2023-06-09T10:41:11.183Z,27.50
2023-06-09T10:44:02.145Z,27.80
2023-06-09T10:46:42.870Z,28.10
2023-06-09T10:49:39.790Z,28.30
2023-06-09T10:52:08.521Z,28.50
2023-06-09T10:54:36.136Z,28.40
2023-06-09T10:57:05.621Z,28.50
2023-06-09T11:00:11.760Z,28.60
2023-06-09T11:02:40.064Z,28.40
2023-06-09T11:05:08.114Z,28.30
2023-06-09T11:07:46.462Z,28.10
2023-06-09T11:10:30.984Z,28.30
2023-06-09T11:12:57.926Z,28.50
2023-06-09T11:15:52.212Z,28.50
2023-06-09T11:18:18.994Z,28.50
2023-06-09T11:21:16.884Z,28.50
2023-06-09T11:24:04.238Z,28.60
2023-06-09T11:26:33.360Z,29.00
2023-06-09T11:29:00.981Z,29.40
2023-06-09T11:31:28.301Z,29.70
2023-06-09T11:33:56.189Z,30.00
2023-06-09T11:36:25.883Z,30.10
2023-06-09T11:38:52.812Z,30.00
2023-06-09T11:41:22.746Z,29.60
2023-06-09T11:43:53.548Z,29.30
2023-06-09T11:46:21.389Z,29.40
2023-06-09T11:49:02.198Z,29.40
2023-06-09T11:51:28.970Z,29.50
2023-06-09T11:53:55.630Z,29.90
2023-06-09T11:56:23.620Z,30.10
2023-06-09T11:58:54.657Z,30.20
2023-06-09T12:01:29.722Z,30.50
2023-06-09T12:03:56.533Z,30.80
2023-06-09T12:06:23.285Z,30.90
2023-06-09T12:08:50.286Z,31.00
2023-06-09T12:11:17.315Z,30.90
2023-06-09T12:13:48.373Z,30.90
2023-06-09T12:16:15.795Z,31.30
2023-06-09T12:18:42.812Z,31.50
2023-06-09T12:21:12.651Z,31.80
2023-06-09T12:23:39.461Z,32.00
2023-06-09T12:26:07.599Z,32.00
2023-06-09T12:28:34.968Z,31.60
2023-06-09T12:31:09.656Z,31.70
2023-06-09T12:33:37.842Z,31.80
2023-06-09T12:36:07.152Z,31.90
2023-06-09T12:38:37.788Z,31.70
2023-06-09T12:41:11.731Z,31.70
2023-06-09T12:43:48.880Z,31.60
2023-06-09T12:46:21.364Z,31.60
2023-06-09T12:49:05.106Z,31.70
2023-06-09T12:51:32.964Z,32.00
2023-06-09T12:54:00.781Z,32.10
2023-06-09T12:56:28.118Z,31.90
2023-06-09T12:58:56.450Z,32.10
2023-06-09T13:01:26.605Z,32.30
2023-06-09T13:03:54.309Z,32.40
2023-06-09T13:06:21.788Z,32.70
2023-06-09T13:08:49.307Z,32.80
2023-06-09T13:11:16.023Z,33.10
2023-06-09T13:13:43.450Z,33.20
2023-06-09T13:16:10.611Z,32.70
2023-06-09T13:18:40.436Z,32.60
2023-06-09T13:21:07.778Z,32.80
2023-06-09T13:23:34.911Z,32.90
2023-06-09T13:26:02.208Z,32.80
2023-06-09T13:28:29.740Z,32.80
2023-06-09T13:30:57.944Z,33.20
2023-06-09T13:33:24.716Z,33.30
2023-06-09T13:35:53.224Z,33.30
2023-06-09T13:38:20.030Z,33.30
2023-06-09T13:40:49.356Z,33.40
2023-06-09T13:43:17.052Z,33.50
2023-06-09T13:45:44.064Z,33.60
2023-06-09T13:48:11.429Z,33.50
2023-06-09T13:50:39.277Z,33.40
2023-06-09T13:53:06.818Z,33.40
2023-06-09T13:55:33.529Z,33.50
2023-06-09T13:58:00.551Z,33.40
2023-06-09T14:00:27.307Z,33.50
2023-06-09T14:02:54.173Z,33.30
2023-06-09T14:05:23.930Z,33.60
2023-06-09T14:07:50.713Z,33.50
2023-06-09T14:10:18.335Z,33.90
2023-06-09T14:12:47.907Z,34.40
2023-06-09T14:15:21.476Z,35.60
2023-06-09T14:17:55.341Z,38.20
2023-06-09T14:20:22.832Z,39.40
2023-06-09T14:22:53.160Z,40.70
2023-06-09T14:25:21.890Z,41.80
2023-06-09T14:27:50.709Z,41.30
2023-06-09T14:30:18.934Z,41.60
2023-06-09T14:32:48.826Z,42.20
2023-06-09T14:35:23.039Z,43.20
2023-06-09T14:37:53.361Z,43.10
2023-06-09T14:40:21.371Z,43.00
2023-06-09T14:42:49.591Z,43.50
2023-06-09T14:45:21.001Z,43.60
2023-06-09T14:47:52.948Z,44.00
2023-06-09T14:50:23.115Z,44.50
2023-06-09T14:52:52.721Z,45.20
2023-06-09T14:55:23.379Z,45.10
2023-06-09T14:57:51.032Z,44.70
2023-06-09T15:00:19.283Z,44.00
2023-06-09T15:02:46.088Z,44.50
2023-06-09T15:05:13.024Z,44.80
2023-06-09T15:07:39.693Z,44.80
2023-06-09T15:10:07.145Z,44.10
2023-06-09T15:12:36.671Z,44.00
2023-06-09T15:15:03.785Z,44.00
2023-06-09T15:17:30.640Z,43.90
2023-06-09T15:19:57.396Z,43.80
2023-06-09T15:22:24.212Z,43.60
2023-06-09T15:24:54.085Z,44.00
2023-06-09T15:27:20.806Z,42.90
2023-06-09T15:29:48.272Z,43.00
2023-06-09T15:32:15.452Z,43.20
2023-06-09T15:34:42.086Z,43.50
2023-06-09T15:37:08.807Z,43.00
2023-06-09T15:39:35.527Z,42.60
2023-06-09T15:42:02.555Z,42.10
2023-06-09T15:44:29.285Z,41.70
2023-06-09T15:46:56.726Z,41.20
2023-06-09T15:49:23.544Z,39.90
2023-06-09T15:51:50.282Z,39.70
2023-06-09T15:54:17.050Z,39.70
2023-06-09T15:56:44.036Z,39.60
2023-06-09T15:59:10.705Z,39.80
2023-06-09T16:01:37.387Z,39.50
2023-06-09T16:04:05.179Z,39.50
2023-06-09T16:06:34.951Z,39.30
2023-06-09T16:09:01.623Z,38.80
2023-06-09T16:11:28.274Z,38.70
2023-06-09T16:13:54.975Z,38.60
2023-06-09T16:16:21.622Z,38.80
2023-06-09T16:18:48.244Z,38.40
2023-06-09T16:21:15.599Z,37.80
2023-06-09T16:23:42.413Z,36.00
2023-06-09T16:26:09.227Z,34.50
2023-06-09T16:28:35.872Z,33.40
2023-06-09T16:31:02.642Z,32.30
2023-06-09T16:33:29.350Z,31.50
2023-06-09T16:35:56.005Z,30.70
2023-06-09T16:38:23.524Z,30.00
2023-06-09T16:40:50.461Z,29.80
2023-06-09T16:43:17.108Z,29.70
2023-06-09T16:45:43.787Z,29.50
2023-06-09T16:48:10.485Z,29.30
2023-06-09T16:50:38.025Z,29.30
2023-06-09T16:53:04.653Z,29.30
2023-06-09T16:55:32.015Z,29.30
2023-06-09T16:57:58.638Z,29.20
2023-06-09T17:00:25.363Z,29.10
2023-06-09T17:02:55.418Z,29.00
2023-06-09T17:05:22.694Z,28.80
2023-06-09T17:07:49.375Z,28.70
2023-06-09T17:10:16.087Z,28.70
2023-06-09T17:12:43.437Z,28.50
2023-06-09T17:15:11.233Z,28.40
2023-06-09T17:17:38.016Z,28.30
2023-06-09T17:20:05.991Z,28.20
2023-06-09T17:22:32.817Z,28.20
2023-06-09T17:24:59.434Z,28.10
2023-06-09T17:27:26.086Z,27.90
2023-06-09T17:30:01.212Z,27.80
2023-06-09T17:32:32.805Z,27.30
2023-06-09T17:35:00.841Z,27.50
2023-06-09T17:37:28.131Z,27.50
2023-06-09T17:39:54.985Z,27.30
2023-06-09T17:42:21.630Z,27.10
2023-06-09T17:44:50.179Z,26.90
2023-06-09T17:47:17.758Z,26.90
2023-06-09T17:49:44.368Z,26.80
2023-06-09T17:52:12.219Z,26.80
2023-06-09T17:54:38.877Z,26.80
2023-06-09T17:57:06.698Z,26.80
2023-06-09T17:59:33.453Z,26.70
2023-06-09T18:02:01.096Z,26.60
2023-06-09T18:04:28.527Z,26.60
2023-06-09T18:06:55.217Z,26.40
2023-06-09T18:09:21.918Z,25.40
2023-06-09T18:11:48.727Z,26.20
2023-06-09T18:14:15.617Z,26.10
2023-06-09T18:16:42.306Z,25.90
2023-06-09T18:19:08.983Z,25.80
2023-06-09T18:21:36.848Z,25.70
2023-06-09T18:24:04.596Z,25.60
2023-06-09T18:26:31.400Z,25.50
2023-06-09T18:28:58.316Z,25.40
2023-06-09T18:31:25.146Z,25.60
2023-06-09T18:33:52.247Z,25.20
2023-06-09T18:36:19.303Z,25.00
2023-06-09T18:38:46.791Z,25.00
2023-06-09T18:41:13.520Z,24.80
2023-06-09T18:43:42.627Z,24.60
2023-06-09T18:46:09.597Z,24.50
2023-06-09T18:48:39.002Z,24.40
2023-06-09T18:51:11.223Z,24.40
2023-06-09T18:53:37.959Z,24.20
2023-06-09T18:56:05.631Z,24.00
2023-06-09T18:58:32.367Z,23.90
2023-06-09T19:00:59.045Z,23.80
2023-06-09T19:03:26.311Z,23.80
2023-06-09T19:05:53.018Z,23.80
2023-06-09T19:08:19.746Z,23.70
2023-06-09T19:10:46.470Z,23.70
2023-06-09T19:13:13.849Z,23.60
2023-06-09T19:15:40.534Z,23.60
2023-06-09T19:18:07.342Z,23.50
2023-06-09T19:20:34.604Z,23.40
2023-06-09T19:23:01.265Z,23.30
2023-06-09T19:25:28.003Z,23.30
2023-06-09T19:27:54.776Z,23.10
2023-06-09T19:30:22.227Z,23.00
2023-06-09T19:32:48.959Z,22.70
2023-06-09T19:35:15.845Z,22.50
2023-06-09T19:37:42.575Z,22.50
2023-06-09T19:40:10.664Z,22.50
2023-06-09T19:42:37.333Z,22.50
2023-06-09T19:45:04.693Z,22.40
2023-06-09T19:47:32.144Z,22.30
2023-06-09T19:49:58.891Z,22.40
2023-06-09T19:52:25.644Z,22.40
2023-06-09T19:54:52.277Z,22.40
2023-06-09T19:57:19.216Z,22.30
2023-06-09T19:59:46.515Z,22.30
2023-06-09T20:02:16.688Z,22.20
2023-06-09T20:04:45.569Z,22.10
2023-06-09T20:07:12.389Z,22.00
2023-06-09T20:09:39.176Z,21.70
2023-06-09T20:12:07.192Z,21.50
2023-06-09T20:14:33.887Z,21.50
2023-06-09T20:17:01.640Z,21.30
2023-06-09T20:19:28.475Z,21.10
2023-06-09T20:21:55.777Z,21.10
2023-06-09T20:24:22.484Z,21.10
2023-06-09T20:26:49.184Z,21.10
2023-06-09T20:29:15.897Z,21.10
2023-06-09T20:31:42.607Z,21.10
2023-06-09T20:34:09.236Z,21.00
2023-06-09T20:36:39.413Z,21.00
2023-06-09T20:39:09.548Z,21.00
2023-06-09T20:41:36.271Z,20.90
2023-06-09T20:44:04.320Z,20.90
2023-06-09T20:46:33.068Z,20.80
2023-06-09T20:49:01.143Z,20.80
2023-06-09T20:51:28.059Z,20.70
2023-06-09T20:53:56.333Z,20.60
2023-06-09T20:56:24.259Z,20.40
2023-06-09T20:58:51.216Z,20.40
2023-06-09T21:01:20.783Z,20.20
2023-06-09T21:03:48.029Z,20.30
2023-06-09T21:06:21.395Z,20.30
2023-06-09T21:08:48.101Z,21.20
2023-06-09T21:11:15.253Z,20.40
2023-06-09T21:13:42.776Z,20.30
2023-06-09T21:16:09.453Z,20.10
2023-06-09T21:18:36.181Z,20.00
2023-06-09T21:21:02.990Z,20.00
2023-06-09T21:23:30.864Z,20.00
2023-06-09T21:25:57.755Z,19.70
2023-06-09T21:28:24.377Z,19.80
2023-06-09T21:30:51.822Z,19.80
2023-06-09T21:33:18.547Z,19.90
2023-06-09T21:35:45.309Z,19.90
2023-06-09T21:38:12.019Z,19.80
2023-06-09T21:40:38.693Z,19.80
2023-06-09T21:43:06.937Z,19.80
2023-06-09T21:45:35.852Z,19.90
2023-06-09T21:48:03.574Z,20.00
2023-06-09T21:50:31.080Z,19.90
2023-06-09T21:52:59.839Z,20.00
2023-06-09T21:55:26.543Z,20.20
2023-06-09T21:57:53.243Z,20.30
2023-06-09T22:00:19.958Z,20.00
2023-06-09T22:02:47.094Z,19.80
2023-06-09T22:05:14.450Z,19.60
2023-06-09T22:07:41.162Z,19.40
2023-06-09T22:10:10.082Z,19.20
2023-06-09T22:12:38.514Z,19.20
2023-06-09T22:15:07.581Z,19.10
2023-06-09T22:17:34.847Z,19.10
2023-06-09T22:20:05.205Z,19.00
2023-06-09T22:22:32.784Z,19.00
2023-06-09T22:24:59.938Z,18.90
2023-06-09T22:27:27.370Z,18.90
2023-06-09T22:29:54.226Z,18.80
2023-06-09T22:32:21.314Z,18.80
2023-06-09T22:34:49.532Z,18.60
2023-06-09T22:37:16.320Z,18.40
2023-06-09T22:39:43.634Z,18.20
2023-06-09T22:42:10.801Z,18.60
2023-06-09T22:44:38.726Z,18.30
2023-06-09T22:47:05.988Z,18.40
2023-06-09T22:49:32.758Z,18.40
2023-06-09T22:52:01.190Z,18.40
2023-06-09T22:54:28.014Z,18.60
2023-06-09T22:56:55.748Z,18.20
2023-06-09T22:59:22.435Z,18.20
2023-06-09T23:01:49.286Z,18.30
2023-06-09T23:04:17.660Z,18.30
2023-06-09T23:06:44.356Z,18.30
2023-06-09T23:09:11.249Z,18.40
2023-06-09T23:11:38.125Z,18.30
2023-06-09T23:14:05.944Z,18.20
2023-06-09T23:16:32.909Z,18.10
2023-06-09T23:19:00.233Z,18.10
2023-06-09T23:21:28.519Z,18.00
2023-06-09T23:23:55.751Z,18.00
2023-06-09T23:26:22.867Z,18.00
2023-06-09T23:28:49.630Z,18.00
2023-06-09T23:31:16.953Z,18.00
2023-06-09T23:33:44.160Z,18.10
2023-06-09T23:36:11.812Z,18.10
2023-06-09T23:38:38.499Z,18.00
2023-06-09T23:41:05.147Z,18.00
2023-06-09T23:43:31.874Z,18.00
2023-06-09T23:45:58.574Z,17.90
2023-06-09T23:48:26.047Z,17.80
2023-06-09T23:50:54.918Z,17.80
2023-06-09T23:53:24.437Z,17.80
2023-06-09T23:55:53.012Z,17.80
2023-06-09T23:58:19.681Z,17.80
